Time;durP1;ratioP1;P1;durP2;ratioP2;P2;SDS_P1;SDS_P2;PMS_P1;PMS_P2;Temp;Humidity;BMP_temperature;BMP_pressure;BME280_temperature;BME280_humidity;BME280_pressure;Samples;Min_cycle;Max_cycle;Signal;HPM_P1;HPM_P2
2022/11/30 00:00:56;;;;;;;11.45;7.60;;;;;;;19.14;45.77;102141.66;4998845;28;20042;-65
2022/11/30 00:03:22;;;;;;;13.60;8.52;;;;;;;19.11;45.81;102133.09;4988571;28;20057;-66
2022/11/30 00:05:48;;;;;;;11.73;7.88;;;;;;;19.11;45.58;102147.13;4987568;28;20045;-68
2022/11/30 00:08:13;;;;;;;12.65;8.27;;;;;;;19.10;45.96;102153.34;4995646;28;20030;-67
2022/11/30 00:10:40;;;;;;;10.93;7.68;;;;;;;19.12;45.70;102156.75;4984882;28;20479;-66
2022/11/30 00:13:05;;;;;;;13.80;7.65;;;;;;;19.10;45.84;102145.44;4985346;28;20395;-65
2022/11/30 00:15:31;;;;;;;11.63;7.80;;;;;;;19.07;45.66;102145.63;4991497;28;20038;-66
2022/11/30 00:17:57;;;;;;;12.48;7.78;;;;;;;19.07;45.65;102153.53;4994969;28;20049;-66
2022/11/30 00:20:23;;;;;;;13.10;7.28;;;;;;;19.07;45.92;102155.34;5000828;28;20037;-65
2022/11/30 00:22:48;;;;;;;12.23;7.65;;;;;;;19.05;45.54;102147.53;4987214;28;20035;-66
2022/11/30 00:25:13;;;;;;;11.23;7.65;;;;;;;19.06;45.95;102162.44;4991676;28;20042;-66
2022/11/30 00:27:39;;;;;;;11.35;7.65;;;;;;;19.07;45.57;102155.34;4981382;28;20034;-67
2022/11/30 00:30:05;;;;;;;11.43;8.13;;;;;;;19.02;45.87;102147.72;4993941;28;20041;-65
2022/11/30 00:32:30;;;;;;;12.43;7.95;;;;;;;19.02;45.48;102150.38;4997470;28;20038;-66
2022/11/30 00:34:56;;;;;;;12.20;8.63;;;;;;;19.03;45.67;102158.19;4994682;28;20026;-66
2022/11/30 00:37:21;;;;;;;11.98;7.65;;;;;;;19.01;45.74;102153.97;4986730;28;20161;-68
2022/11/30 00:39:46;;;;;;;11.43;7.88;;;;;;;18.97;45.85;102150.66;4991493;28;20108;-66
2022/11/30 00:42:12;;;;;;;11.63;7.85;;;;;;;18.97;45.62;102150.66;4984146;28;20030;-66
2022/11/30 00:44:37;;;;;;;11.35;8.00;;;;;;;18.99;45.67;102155.84;4993435;28;20121;-65
2022/11/30 00:47:03;;;;;;;11.30;8.45;;;;;;;18.97;45.81;102161.22;5000021;28;20033;-68
2022/11/30 00:49:28;;;;;;;12.10;8.07;;;;;;;18.96;45.64;102156.03;4984349;28;20498;-65
2022/11/30 00:51:53;;;;;;;11.35;7.85;;;;;;;18.94;45.69;102155.28;4993924;28;20076;-67
2022/11/30 00:54:19;;;;;;;11.43;7.72;;;;;;;18.94;45.58;102161.41;4991284;28;20030;-68
2022/11/30 00:56:44;;;;;;;11.37;8.30;;;;;;;18.91;45.54;102151.03;4994994;28;20297;-66
2022/11/30 00:59:09;;;;;;;10.52;7.57;;;;;;;18.90;45.84;102157.28;4983331;28;20287;-67
2022/11/30 01:01:35;;;;;;;11.75;7.70;;;;;;;18.91;45.47;102164.25;4999286;28;20034;-67
2022/11/30 01:04:01;;;;;;;11.35;7.80;;;;;;;18.93;45.74;102164.16;4998364;28;20037;-68
2022/11/30 01:06:26;;;;;;;12.05;7.72;;;;;;;18.89;45.70;102160.03;4991053;28;20030;-66
2022/11/30 01:08:52;;;;;;;11.23;8.02;;;;;;;18.92;45.63;102167.75;5000436;28;20042;-65
2022/11/30 01:11:22;;;;;;;11.48;7.70;;;;;;;18.89;45.37;102171.44;4993297;28;20030;-67
2022/11/30 01:13:48;;;;;;;12.88;8.38;;;;;;;18.87;45.44;102164.53;4999631;28;20046;-67
2022/11/30 01:16:17;;;;;;;11.15;7.40;;;;;;;18.84;45.58;102166.44;5000538;28;20040;-66
2022/11/30 01:18:43;;;;;;;10.10;7.00;;;;;;;18.88;45.48;102168.88;5003312;28;20140;-65
2022/11/30 01:21:12;;;;;;;10.75;7.85;;;;;;;18.87;45.75;102170.69;4989559;28;20045;-65
2022/11/30 01:23:37;;;;;;;11.65;7.07;;;;;;;18.87;45.39;102172.47;5002690;28;20145;-67
2022/11/30 01:26:02;;;;;;;11.02;7.57;;;;;;;18.82;45.60;102160.38;5003633;28;20117;-67
2022/11/30 01:28:28;;;;;;;11.38;7.63;;;;;;;18.86;45.45;102169.00;4989089;28;20058;-65
2022/11/30 01:31:11;;;;;;;11.32;7.72;;;;;;;18.83;45.61;102170.03;5003716;28;20399;-65
2022/11/30 01:33:36;;;;;;;10.38;7.65;;;;;;;18.82;45.64;102170.94;5003578;28;20073;-65
2022/11/30 01:36:05;;;;;;;11.02;7.72;;;;;;;18.79;45.87;102167.66;4995179;28;20065;-68
2022/11/30 01:39:00;;;;;;;9.70;6.95;;;;;;;18.82;45.58;102168.31;4988195;28;20117;-66
2022/11/30 01:41:28;;;;;;;12.10;7.28;;;;;;;18.80;45.56;102164.06;4986780;28;20050;-66
2022/11/30 01:44:16;;;;;;;12.85;7.90;;;;;;;18.81;45.73;102166.59;4985863;28;20042;-67
2022/11/30 01:46:52;;;;;;;10.93;8.00;;;;;;;18.78;45.39;102165.97;4993638;28;20034;-65
2022/11/30 01:49:34;;;;;;;10.45;6.85;;;;;;;18.76;45.62;102157.28;4983917;28;20483;-65
2022/11/30 01:52:05;;;;;;;11.18;7.40;;;;;;;18.74;45.48;102160.03;4999510;28;20025;-65
2022/11/30 01:54:36;;;;;;;11.20;7.20;;;;;;;18.73;45.50;102171.53;4985790;28;20038;-65
2022/11/30 01:57:08;;;;;;;11.75;7.90;;;;;;;18.74;45.30;102175.88;4997828;28;20029;-65
2022/11/30 01:59:33;;;;;;;11.25;7.15;;;;;;;18.73;45.44;102175.97;4993271;28;20364;-64
2022/11/30 02:01:59;;;;;;;11.40;7.35;;;;;;;18.76;45.59;102183.69;4986999;28;20097;-65
2022/11/30 02:04:30;;;;;;;10.30;7.50;;;;;;;18.75;45.54;102189.91;4974322;28;20509;-65
2022/11/30 02:06:57;;;;;;;11.05;7.07;;;;;;;18.72;45.51;102192.75;4995167;28;20486;-65
2022/11/30 02:09:23;;;;;;;12.32;7.63;;;;;;;18.69;45.47;102188.50;4994693;28;20038;-67
2022/11/30 02:11:49;;;;;;;11.63;7.47;;;;;;;18.70;45.35;102186.72;4983380;28;20041;-67
2022/11/30 02:14:14;;;;;;;10.90;7.20;;;;;;;18.73;45.53;102192.66;4983528;28;20031;-66
2022/11/30 02:16:47;;;;;;;10.30;7.13;;;;;;;18.71;45.45;102188.41;4995696;28;20034;-67
2022/11/30 02:19:13;;;;;;;11.32;6.88;;;;;;;18.72;45.46;102192.75;5002496;28;20329;-65
2022/11/30 02:22:01;;;;;;;9.80;6.90;;;;;;;18.71;45.55;102188.41;5001735;28;21060;-66
2022/11/30 02:24:38;;;;;;;11.20;7.18;;;;;;;18.72;45.61;102190.94;4991827;28;20030;-64
2022/11/30 02:27:13;;;;;;;8.95;6.50;;;;;;;18.67;45.38;102185.97;4990088;28;20137;-65
2022/11/30 02:29:45;;;;;;;10.82;7.43;;;;;;;18.71;45.42;102191.03;4995503;28;20180;-68
2022/11/30 02:32:15;;;;;;;9.18;6.15;;;;;;;18.70;45.58;102194.66;4996032;28;20655;-66
2022/11/30 02:34:42;;;;;;;9.82;7.28;;;;;;;18.70;45.59;102192.00;4986605;28;20069;-67
2022/11/30 02:37:09;;;;;;;10.75;6.55;;;;;;;18.70;45.27;102192.00;4989927;28;20533;-65
2022/11/30 02:39:35;;;;;;;9.25;6.57;;;;;;;18.67;45.48;102191.25;4994422;28;20084;-66
2022/11/30 02:42:00;;;;;;;10.20;6.65;;;;;;;18.70;45.58;102192.00;4992028;28;20398;-68
2022/11/30 02:44:27;;;;;;;11.15;6.78;;;;;;;18.65;45.49;102190.50;4987012;28;20042;-65
2022/11/30 02:46:55;;;;;;;10.13;6.53;;;;;;;18.69;45.55;102204.34;4991818;28;20030;-66
2022/11/30 02:49:34;;;;;;;10.30;6.10;;;;;;;18.66;45.35;102202.75;4985813;28;20045;-66
2022/11/30 02:52:00;;;;;;;9.00;6.50;;;;;;;18.65;45.52;102197.56;4990435;28;20540;-66
2022/11/30 02:54:26;;;;;;;9.85;6.55;;;;;;;18.66;45.37;102201.91;4997426;28;20041;-65
2022/11/30 02:56:51;;;;;;;9.75;6.40;;;;;;;18.66;45.35;102204.56;4989955;28;20088;-66
2022/11/30 02:59:16;;;;;;;10.82;6.55;;;;;;;18.65;45.23;102201.06;4992433;28;20034;-66
2022/11/30 03:01:42;;;;;;;9.52;6.00;;;;;;;18.63;45.32;102204.75;4986175;28;20034;-68
2022/11/30 03:04:07;;;;;;;11.63;6.68;;;;;;;18.63;45.39;102196.81;4990715;28;20586;-66
2022/11/30 03:06:32;;;;;;;11.27;6.37;;;;;;;18.62;45.21;102201.25;4992921;28;20044;-66
2022/11/30 03:08:58;;;;;;;9.43;6.10;;;;;;;18.61;45.50;102202.19;4985542;28;20282;-66
2022/11/30 03:11:24;;;;;;;7.55;5.63;;;;;;;18.60;45.27;102197.84;4993017;28;20033;-65
2022/11/30 03:13:50;;;;;;;8.63;5.80;;;;;;;18.60;45.29;102199.66;4989301;28;20092;-67
2022/11/30 03:16:15;;;;;;;8.63;5.50;;;;;;;18.59;45.06;102197.94;5003880;28;20038;-66
2022/11/30 03:18:40;;;;;;;8.38;6.30;;;;;;;18.59;45.45;102201.44;5000706;28;20056;-64
2022/11/30 03:21:08;;;;;;;7.35;5.50;;;;;;;18.61;45.11;102203.97;4996404;28;20025;-66
2022/11/30 03:23:34;;;;;;;8.50;5.85;;;;;;;18.60;45.39;102205.78;4999136;28;20030;-65
2022/11/30 03:26:00;;;;;;;10.32;5.95;;;;;;;18.57;45.18;102200.69;5000837;28;20084;-65
2022/11/30 03:28:25;;;;;;;8.70;5.63;;;;;;;18.60;45.13;102204.94;4984947;28;20042;-64
2022/11/30 03:30:51;;;;;;;8.57;5.80;;;;;;;18.54;45.14;102197.38;4992044;28;20037;-67
2022/11/30 03:33:17;;;;;;;8.35;5.57;;;;;;;18.57;45.38;102202.47;4989427;28;20399;-66
2022/11/30 03:35:42;;;;;;;8.57;5.25;;;;;;;18.57;45.05;102199.84;4986150;28;20128;-65
2022/11/30 03:38:07;;;;;;;7.78;5.60;;;;;;;18.55;45.05;102202.56;4987303;28;20042;-65
2022/11/30 03:40:35;;;;;;;8.80;5.43;;;;;;;18.54;45.19;102198.22;4998747;28;20101;-67
2022/11/30 03:43:00;;;;;;;8.68;5.95;;;;;;;18.54;45.31;102205.31;4986054;28;20267;-65
2022/11/30 03:45:25;;;;;;;8.63;5.97;;;;;;;18.57;45.29;102202.47;4982675;28;20030;-67
2022/11/30 03:47:50;;;;;;;9.70;5.63;;;;;;;18.55;45.27;102202.56;4989757;28;20263;-66
2022/11/30 03:50:16;;;;;;;8.43;5.63;;;;;;;18.55;45.07;102207.84;4990054;28;20267;-65
2022/11/30 03:52:41;;;;;;;7.90;5.38;;;;;;;18.52;45.34;102202.75;4987906;28;20260;-67
2022/11/30 03:55:07;;;;;;;8.23;5.60;;;;;;;18.52;45.27;102200.13;4982139;28;20116;-67
2022/11/30 03:57:32;;;;;;;7.35;5.07;;;;;;;18.53;45.12;102207.09;4982218;28;20453;-66
2022/11/30 03:59:57;;;;;;;7.67;5.20;;;;;;;18.51;45.18;102205.50;4987597;28;20037;-67
2022/11/30 04:02:22;;;;;;;8.60;5.57;;;;;;;18.53;45.22;102204.44;4982403;28;20264;-67
2022/11/30 04:04:48;;;;;;;7.53;5.13;;;;;;;18.54;45.12;102205.31;4981877;28;20288;-66
2022/11/30 04:07:13;;;;;;;7.20;5.40;;;;;;;18.53;45.16;102206.25;4987961;28;20045;-65
2022/11/30 04:09:38;;;;;;;7.53;5.43;;;;;;;18.50;45.12;102202.03;4992180;28;20271;-67
2022/11/30 04:12:04;;;;;;;7.70;5.20;;;;;;;18.51;45.00;102208.13;4972012;28;20038;-67
2022/11/30 04:14:29;;;;;;;8.30;5.30;;;;;;;18.51;45.08;102194.94;4981750;28;20306;-66
2022/11/30 04:16:54;;;;;;;9.68;5.00;;;;;;;18.49;45.17;102200.31;4981725;28;20038;-66
2022/11/30 04:19:19;;;;;;;6.63;4.70;;;;;;;18.49;45.44;102200.31;4981450;28;20085;-66
2022/11/30 04:21:45;;;;;;;7.18;4.85;;;;;;;18.51;45.14;102208.13;4994427;28;20268;-65
2022/11/30 04:24:10;;;;;;;7.23;4.87;;;;;;;18.48;45.24;102207.38;4984899;28;20061;-65
2022/11/30 04:26:35;;;;;;;6.93;4.95;;;;;;;18.48;45.13;102209.16;4988267;28;20280;-67
2022/11/30 04:29:00;;;;;;;7.85;4.45;;;;;;;18.49;45.02;102214.34;4995554;28;20121;-68
2022/11/30 04:31:26;;;;;;;6.97;4.70;;;;;;;18.45;45.24;102206.72;4990525;28;20399;-64
2022/11/30 04:33:53;;;;;;;6.88;5.20;;;;;;;18.44;44.65;102205.88;4981405;28;20292;-65
2022/11/30 04:36:19;;;;;;;6.47;4.85;;;;;;;18.48;45.05;102211.81;4989972;28;20037;-66
2022/11/30 04:38:45;;;;;;;7.50;4.85;;;;;;;18.45;45.06;102204.06;4985382;28;20030;-67
2022/11/30 04:41:10;;;;;;;7.95;4.90;;;;;;;18.47;45.06;102213.59;4985316;28;20209;-65
2022/11/30 04:43:36;;;;;;;7.18;4.95;;;;;;;18.44;45.15;102207.66;4994968;28;20397;-67
2022/11/30 04:46:02;;;;;;;6.70;4.60;;;;;;;18.44;44.80;102207.66;5002299;28;20908;-67
2022/11/30 04:48:27;;;;;;;7.18;5.15;;;;;;;18.44;45.00;102210.31;4985543;28;20117;-67
2022/11/30 04:50:52;;;;;;;8.48;4.93;;;;;;;18.47;44.95;102223.31;5001503;28;20120;-66
2022/11/30 04:53:18;;;;;;;7.63;5.03;;;;;;;18.45;45.07;102225.19;5004560;28;20037;-67
2022/11/30 04:55:43;;;;;;;6.93;4.75;;;;;;;18.43;45.14;102217.34;4993528;28;20260;-66
2022/11/30 04:58:08;;;;;;;7.28;4.80;;;;;;;18.42;45.16;102213.03;4991626;28;20091;-68
2022/11/30 05:00:34;;;;;;;7.20;5.07;;;;;;;18.41;45.00;102213.13;4984561;28;20042;-68
2022/11/30 05:03:00;;;;;;;6.93;4.80;;;;;;;18.44;45.01;102219.06;4986628;28;20098;-67
2022/11/30 05:05:25;;;;;;;7.90;4.70;;;;;;;18.41;44.75;102216.63;4995248;28;20131;-65
2022/11/30 05:07:56;;;;;;;7.78;4.85;;;;;;;18.41;44.74;102215.78;4984435;28;20049;-66
2022/11/30 05:10:21;;;;;;;8.35;4.75;;;;;;;18.41;45.09;102210.50;5004140;28;20112;-67
2022/11/30 05:12:46;;;;;;;8.70;5.03;;;;;;;18.43;44.81;102219.16;4994081;28;20156;-67
2022/11/30 05:15:11;;;;;;;8.38;4.60;;;;;;;18.40;44.89;102214.06;4984650;28;20027;-65
2022/11/30 05:17:37;;;;;;;7.15;4.28;;;;;;;18.40;45.04;102219.34;4986075;28;20097;-66
2022/11/30 05:20:03;;;;;;;6.93;4.65;;;;;;;18.40;44.93;102219.34;4986868;28;20398;-66
2022/11/30 05:22:28;;;;;;;6.60;4.65;;;;;;;18.39;45.19;102220.28;4984184;28;20034;-66
2022/11/30 05:24:53;;;;;;;6.37;4.33;;;;;;;18.39;44.87;102231.69;4992490;28;20178;-65
2022/11/30 05:27:18;;;;;;;6.75;4.70;;;;;;;18.41;44.81;102236.88;5004076;28;20346;-65
2022/11/30 05:29:44;;;;;;;7.10;4.90;;;;;;;18.37;44.81;102233.56;4988072;28;21007;-67
2022/11/30 05:32:09;;;;;;;6.40;4.57;;;;;;;18.39;44.62;102231.69;5000053;28;20351;-64
2022/11/30 05:34:34;;;;;;;7.00;4.93;;;;;;;18.39;44.76;102230.84;4996874;28;20298;-64
2022/11/30 05:36:59;;;;;;;6.63;4.77;;;;;;;18.36;44.96;102223.09;4984322;28;20268;-67
2022/11/30 05:39:24;;;;;;;6.47;4.50;;;;;;;18.35;44.71;102227.53;4983817;28;20931;-67
2022/11/30 05:41:50;;;;;;;6.18;4.22;;;;;;;18.37;44.77;102228.28;4998096;28;20346;-66
2022/11/30 05:44:15;;;;;;;7.43;4.80;;;;;;;18.37;44.83;102238.84;5003914;28;20029;-67
2022/11/30 05:46:40;;;;;;;7.40;5.17;;;;;;;18.38;44.63;102237.06;5002647;28;20743;-66
2022/11/30 05:49:06;;;;;;;6.20;4.15;;;;;;;18.28;44.81;102231.50;4973872;28;20621;-65
2022/11/30 05:51:31;;;;;;;6.65;4.32;;;;;;;18.33;44.86;102241.78;4988750;28;20037;-65
2022/11/30 05:53:57;;;;;;;6.68;4.90;;;;;;;18.36;44.75;102250.38;4987101;28;20034;-65
2022/11/30 05:56:22;;;;;;;6.88;4.50;;;;;;;18.34;44.37;102252.25;4992007;28;20037;-66
2022/11/30 05:58:47;;;;;;;7.75;4.70;;;;;;;18.35;44.62;102261.00;4994730;28;20037;-66
2022/11/30 06:01:18;;;;;;;5.97;3.97;;;;;;;18.33;44.79;102257.63;5000392;28;20152;-67
2022/11/30 06:03:43;;;;;;;6.43;4.30;;;;;;;18.32;44.81;102251.47;5000924;28;20040;-66
2022/11/30 06:06:08;;;;;;;6.00;4.40;;;;;;;18.34;44.89;102249.63;4989033;28;20034;-68
2022/11/30 06:08:34;;;;;;;6.45;4.13;;;;;;;18.37;44.82;102262.59;4991341;28;20053;-68
2022/11/30 06:11:00;;;;;;;6.63;3.85;;;;;;;18.35;44.76;102253.09;4994952;28;20034;-67
2022/11/30 06:13:25;;;;;;;5.75;3.72;;;;;;;18.41;44.83;102263.28;5002971;28;20036;-68
2022/11/30 06:15:50;;;;;;;6.20;3.73;;;;;;;18.42;45.07;102262.31;4995650;28;20031;-66
2022/11/30 06:18:15;;;;;;;5.37;3.27;;;;;;;18.45;44.98;102262.13;4995094;28;20778;-66
2022/11/30 06:20:41;;;;;;;5.47;3.40;;;;;;;18.47;45.02;102261.13;4996877;28;20653;-65
2022/11/30 06:23:06;;;;;;;6.13;3.42;;;;;;;18.52;45.10;102259.97;4996010;28;20251;-68
2022/11/30 06:25:31;;;;;;;5.43;3.13;;;;;;;18.52;44.95;102260.84;5003101;28;20065;-67
2022/11/30 06:27:57;;;;;;;5.00;3.08;;;;;;;18.54;45.21;102256.31;5002746;28;20623;-66
2022/11/30 06:30:22;;;;;;;5.65;3.08;;;;;;;18.62;44.81;102264.59;5002788;28;20033;-66
2022/11/30 06:32:49;;;;;;;5.53;3.45;;;;;;;18.64;44.86;102267.16;5002091;28;20037;-69
2022/11/30 06:35:15;;;;;;;5.78;3.22;;;;;;;18.67;44.85;102259.91;4995582;28;20025;-68
2022/11/30 06:37:40;;;;;;;6.45;3.60;;;;;;;18.70;44.75;102261.50;5002377;28;20042;-67
2022/11/30 06:40:07;;;;;;;5.80;3.20;;;;;;;18.73;44.69;102263.97;5002517;28;20045;-66
2022/11/30 06:42:32;;;;;;;4.82;3.20;;;;;;;18.77;44.44;102261.97;4996050;28;20046;-67
2022/11/30 06:44:58;;;;;;;5.63;3.30;;;;;;;18.78;44.67;102266.31;4982931;28;20089;-66
2022/11/30 06:47:23;;;;;;;5.93;3.35;;;;;;;18.79;44.65;102260.09;4988242;28;20711;-66
2022/11/30 06:49:48;;;;;;;5.00;3.43;;;;;;;18.83;44.61;102269.53;4993947;28;20037;-66
2022/11/30 06:52:14;;;;;;;5.03;3.00;;;;;;;18.82;44.55;102263.41;4987470;28;20808;-67
2022/11/30 06:54:39;;;;;;;5.50;3.25;;;;;;;18.87;44.48;102271.06;4982907;28;20322;-68
2022/11/30 06:57:04;;;;;;;6.00;3.20;;;;;;;18.87;44.48;102272.84;4982881;28;20034;-67
2022/11/30 06:59:29;;;;;;;4.75;3.05;;;;;;;18.88;44.45;102277.19;4982203;28;20096;-66
2022/11/30 07:01:55;;;;;;;5.13;3.10;;;;;;;18.91;44.60;102277.00;4996865;28;20478;-67
2022/11/30 07:04:20;;;;;;;4.80;3.05;;;;;;;18.94;44.48;102284.75;4995740;28;20045;-68
2022/11/30 07:06:45;;;;;;;4.63;2.90;;;;;;;18.94;44.33;102282.94;4987171;28;20483;-66
2022/11/30 07:09:12;;;;;;;5.63;2.93;;;;;;;18.89;44.55;102270.97;5001437;28;20042;-66
2022/11/30 07:11:37;;;;;;;5.00;3.00;;;;;;;18.94;44.43;102284.75;4988740;28;20268;-67
2022/11/30 07:14:02;;;;;;;4.90;3.20;;;;;;;18.93;44.37;102273.34;5000179;28;20038;-67
2022/11/30 07:16:27;;;;;;;4.70;2.80;;;;;;;18.94;44.44;102282.09;4995540;28;20038;-67
2022/11/30 07:18:53;;;;;;;4.87;2.90;;;;;;;18.93;44.56;102275.09;4990143;28;20287;-65
2022/11/30 07:21:18;;;;;;;5.03;3.30;;;;;;;18.96;44.12;102286.34;5001968;28;20252;-65
2022/11/30 07:26:27;;;;;;;5.07;3.10;;;;;;;18.97;44.40;102297.75;4997097;28;21078;-69
2022/11/30 07:28:54;;;;;;;4.75;2.88;;;;;;;18.98;44.48;102304.75;4986452;28;20042;-65
2022/11/30 07:31:20;;;;;;;5.65;3.10;;;;;;;18.98;44.56;102305.59;4990742;28;20032;-64
2022/11/30 07:33:46;;;;;;;5.15;3.40;;;;;;;18.96;44.32;102310.13;5001251;28;20058;-64
2022/11/30 07:36:12;;;;;;;4.82;2.88;;;;;;;18.95;44.42;102308.44;4990756;28;20117;-65
2022/11/30 07:38:37;;;;;;;5.72;3.33;;;;;;;18.96;44.50;102312.78;4985392;28;20121;-65
2022/11/30 07:41:03;;;;;;;5.40;3.20;;;;;;;18.93;44.55;102310.31;4982109;28;20513;-67
2022/11/30 07:43:29;;;;;;;5.25;3.70;;;;;;;18.94;44.56;102314.63;4998267;28;20481;-68
2022/11/30 07:45:54;;;;;;;5.50;3.50;;;;;;;18.96;44.62;102314.53;4984970;28;20030;-67
2022/11/30 07:48:20;;;;;;;6.05;3.50;;;;;;;18.95;44.63;102324.28;4992526;28;20054;-67
2022/11/30 07:50:49;;;;;;;5.55;3.40;;;;;;;18.94;44.78;102325.22;4981542;28;20453;-67
2022/11/30 07:53:15;;;;;;;5.40;3.88;;;;;;;18.97;45.21;102332.09;4990769;28;20148;-65
2022/11/30 07:55:41;;;;;;;6.05;3.75;;;;;;;18.96;45.10;102325.97;4989075;28;20034;-66
2022/11/30 07:58:08;;;;;;;5.28;3.53;;;;;;;18.99;44.95;102333.72;4984109;28;20031;-67
2022/11/30 08:00:34;;;;;;;5.85;3.42;;;;;;;18.92;45.25;102316.53;4981827;28;20034;-67
2022/11/30 08:02:59;;;;;;;5.22;3.45;;;;;;;18.99;45.35;102330.22;4983131;28;20056;-67
2022/11/30 08:05:25;;;;;;;5.17;3.43;;;;;;;18.97;45.23;102330.31;4983587;28;20046;-66
2022/11/30 08:07:51;;;;;;;5.53;3.40;;;;;;;18.98;45.29;102328.53;4983922;28;20260;-64
2022/11/30 08:10:17;;;;;;;6.35;3.17;;;;;;;18.98;45.43;102332.00;4988098;28;20188;-65
2022/11/30 08:12:42;;;;;;;4.72;3.05;;;;;;;19.01;45.54;102338.91;4994525;28;20026;-64
2022/11/30 08:15:08;;;;;;;5.90;3.47;;;;;;;18.98;45.45;102328.53;4996277;28;20564;-66
2022/11/30 08:17:33;;;;;;;4.93;3.15;;;;;;;18.96;45.48;102333.91;5003912;28;20891;-66
2022/11/30 08:19:58;;;;;;;5.10;3.13;;;;;;;19.01;45.52;102345.03;4990550;28;20034;-66
2022/11/30 08:22:24;;;;;;;4.57;2.73;;;;;;;18.99;45.79;102340.78;4991135;28;20038;-65
2022/11/30 08:24:49;;;;;;;5.10;3.23;;;;;;;18.99;45.79;102340.78;5001671;28;20346;-66
2022/11/30 08:27:14;;;;;;;5.47;3.30;;;;;;;19.04;45.87;102346.63;4995447;28;20270;-66
2022/11/30 08:29:39;;;;;;;4.63;2.95;;;;;;;19.04;45.85;102346.63;4995058;28;21112;-66
2022/11/30 08:32:05;;;;;;;6.07;3.37;;;;;;;19.01;45.88;102347.69;5011351;28;20092;-66
2022/11/30 08:34:30;;;;;;;5.50;3.25;;;;;;;19.06;45.94;102355.31;4997367;28;20279;-67
2022/11/30 08:36:55;;;;;;;6.63;3.83;;;;;;;19.08;45.69;102352.59;4992064;28;20496;-68
2022/11/30 08:39:21;;;;;;;15.90;4.32;;;;;;;19.07;45.80;102359.66;4984302;28;20387;-72
2022/11/30 08:41:46;;;;;;;6.07;3.72;;;;;;;19.07;45.71;102359.66;4983612;28;20034;-67
2022/11/30 08:44:11;;;;;;;5.33;3.70;;;;;;;19.09;45.70;102364.84;4980887;28;20034;-68
2022/11/30 08:46:37;;;;;;;6.28;3.58;;;;;;;19.09;45.88;102367.47;4985564;28;20624;-67
2022/11/30 08:49:03;;;;;;;7.10;3.92;;;;;;;19.06;45.72;102359.75;4977645;28;20038;-68
2022/11/30 08:51:28;;;;;;;7.07;3.88;;;;;;;19.10;46.11;102372.66;4986751;28;20053;-65
2022/11/30 08:53:53;;;;;;;6.85;3.65;;;;;;;19.10;45.78;102367.38;4989072;28;20070;-65
2022/11/30 08:56:22;;;;;;;6.60;3.63;;;;;;;19.14;45.96;102370.72;4985103;28;20022;-68
2022/11/30 08:58:48;;;;;;;7.38;3.50;;;;;;;19.14;46.04;102365.44;4982054;28;21168;-68
2022/11/30 09:01:19;;;;;;;5.10;3.35;;;;;;;19.17;45.91;102368.72;4987227;28;20026;-69
2022/11/30 09:03:46;;;;;;;5.40;3.45;;;;;;;19.19;46.12;102368.63;4986738;28;20475;-66
2022/11/30 09:06:15;;;;;;;6.07;3.45;;;;;;;19.22;46.04;102373.72;4986587;28;20041;-70
2022/11/30 09:08:42;;;;;;;5.90;3.70;;;;;;;19.21;45.67;102372.84;4981876;28;20502;-67
2022/11/30 09:11:14;;;;;;;6.25;3.60;;;;;;;19.25;45.53;102375.31;4981455;28;20056;-67
2022/11/30 09:13:41;;;;;;;5.18;3.40;;;;;;;19.25;45.83;102376.19;4992356;28;20034;-66
2022/11/30 09:16:07;;;;;;;5.78;3.92;;;;;;;19.24;45.47;102378.91;4989437;28;20037;-69
2022/11/30 09:18:33;;;;;;;5.53;3.58;;;;;;;19.27;45.46;102381.38;4988622;28;20221;-67
2022/11/30 09:21:00;;;;;;;7.47;3.83;;;;;;;19.27;45.49;102387.50;4988189;28;20046;-66
2022/11/30 09:23:25;;;;;;;6.30;3.72;;;;;;;19.26;45.58;102384.94;4981705;28;20680;-68
2022/11/30 09:25:55;;;;;;;5.80;3.70;;;;;;;19.25;45.29;102386.75;4991983;28;20089;-67
2022/11/30 09:28:21;;;;;;;5.20;3.75;;;;;;;19.30;45.30;102383.84;4989178;28;20038;-67
2022/11/30 09:30:46;;;;;;;5.43;3.90;;;;;;;19.32;45.55;102389.88;4988882;28;20508;-67
2022/11/30 09:33:11;;;;;;;6.15;3.83;;;;;;;19.30;45.36;102386.47;4988001;28;20073;-66
2022/11/30 09:35:36;;;;;;;6.93;4.30;;;;;;;19.30;45.30;102389.97;4989162;28;20555;-67
2022/11/30 09:38:02;;;;;;;7.72;3.80;;;;;;;19.32;45.34;102392.50;4990625;28;20272;-66
2022/11/30 09:40:28;;;;;;;6.15;4.20;;;;;;;19.29;45.37;102393.53;4988329;28;20044;-67
2022/11/30 09:43:06;;;;;;;7.93;4.30;;;;;;;19.31;45.32;102394.31;4986687;28;20034;-70
2022/11/30 09:45:35;;;;;;;6.28;3.85;;;;;;;19.32;45.23;102400.44;4983853;28;20052;-67
2022/11/30 09:48:17;;;;;;;6.78;4.20;;;;;;;19.32;45.36;102397.78;5001251;28;20467;-66
2022/11/30 09:50:46;;;;;;;7.00;4.07;;;;;;;19.29;45.23;102390.88;4982518;28;20124;-69
2022/11/30 09:53:40;;;;;;;6.70;4.00;;;;;;;19.32;45.22;102401.28;4982947;28;20924;-67
2022/11/30 09:56:18;;;;;;;7.28;4.00;;;;;;;19.29;45.16;102384.75;4976803;28;20100;-65
2022/11/30 09:58:48;;;;;;;7.28;4.30;;;;;;;19.30;45.02;102397.88;4989781;28;20109;-67
2022/11/30 10:01:18;;;;;;;7.82;4.05;;;;;;;19.27;45.21;102394.59;4987927;28;20038;-66
2022/11/30 10:03:43;;;;;;;6.57;3.60;;;;;;;19.27;45.21;102391.94;4993515;28;20052;-66
2022/11/30 10:06:24;;;;;;;6.28;4.10;;;;;;;19.27;45.08;102391.94;4979930;28;20415;-66
2022/11/30 10:09:26;;;;;;;7.57;4.28;;;;;;;19.31;45.14;102396.94;4987281;28;20029;-68
2022/11/30 10:12:11;;;;;;;6.75;4.55;;;;;;;19.29;45.11;102382.97;4970782;28;20053;-69
2022/11/30 10:15:17;;;;;;;6.32;4.25;;;;;;;19.29;45.16;102382.97;4975839;28;20046;-67
2022/11/30 10:17:57;;;;;;;5.30;3.45;;;;;;;19.28;45.35;102393.63;4979665;28;20077;-68
2022/11/30 10:20:28;;;;;;;8.60;4.40;;;;;;;19.28;45.40;102388.34;4978797;28;20140;-67
2022/11/30 10:22:54;;;;;;;7.32;4.53;;;;;;;19.29;45.03;102392.69;4987100;28;20042;-70
2022/11/30 10:26:03;;;;;;;6.30;4.18;;;;;;;19.25;45.08;102384.13;4988163;28;20096;-66
2022/11/30 10:28:49;;;;;;;14.45;3.85;;;;;;;19.24;45.12;102379.75;4980290;28;20641;-69
2022/11/30 10:31:15;;;;;;;9.55;3.90;;;;;;;19.27;45.17;102381.38;4966413;28;20046;-68
2022/11/30 10:33:47;;;;;;;7.80;4.45;;;;;;;19.23;45.15;102371.94;4987522;28;20054;-68
2022/11/30 10:36:26;;;;;;;11.07;3.97;;;;;;;19.23;45.33;102371.94;4987075;28;20889;-68
2022/11/30 10:38:56;;;;;;;6.45;4.07;;;;;;;19.24;45.53;102374.47;4987269;28;20072;-67
2022/11/30 10:41:28;;;;;;;5.97;3.95;;;;;;;19.23;45.55;102378.06;4992300;28;20065;-68
2022/11/30 10:44:13;;;;;;;5.32;3.95;;;;;;;19.26;45.46;102372.56;4996117;28;20050;-64
2022/11/30 10:46:42;;;;;;;;;;;;;;;19.31;45.26;102373.16;5000441;28;20053;-68
2022/11/30 10:49:15;;;;;;;6.43;3.88;;;;;;;19.27;45.44;102366.34;4983163;28;20012;-67
2022/11/30 10:51:44;;;;;;;6.22;3.95;;;;;;;19.24;45.38;102363.91;4981794;28;20031;-67
2022/11/30 10:54:16;;;;;;;6.80;4.05;;;;;;;19.25;45.57;102370.91;4982472;28;20035;-65
2022/11/30 10:56:42;;;;;;;5.60;3.95;;;;;;;19.27;45.54;102373.44;4986652;28;20038;-67
2022/11/30 10:59:33;;;;;;;7.45;4.35;;;;;;;19.25;45.52;102360.31;4987562;28;20934;-66
2022/11/30 11:01:58;;;;;;;6.70;4.38;;;;;;;19.23;45.50;102356.91;4987197;28;20039;-65
2022/11/30 11:04:26;;;;;;;5.27;3.53;;;;;;;19.24;45.61;102355.13;4992114;28;20026;-67
2022/11/30 11:06:58;;;;;;;6.00;4.00;;;;;;;19.24;45.85;102365.69;4991171;28;20266;-68
2022/11/30 11:09:32;;;;;;;6.55;3.80;;;;;;;19.26;45.48;102358.53;4983353;28;20034;-67
2022/11/30 11:12:03;;;;;;;6.35;4.15;;;;;;;19.24;45.75;102355.13;4987387;28;20541;-67
2022/11/30 11:14:29;;;;;;;6.63;4.25;;;;;;;19.22;45.56;102349.94;4992594;28;20044;-67
2022/11/30 11:17:03;;;;;;;6.18;3.80;;;;;;;19.25;45.60;102356.81;4995808;28;20437;-67
2022/11/30 11:19:39;;;;;;;;;;;;;;;19.29;45.36;102353.88;4986969;28;20119;-67
2022/11/30 11:22:15;;;;;;;6.15;3.83;;;;;;;19.26;45.59;102358.53;4995316;28;19974;-68
2022/11/30 11:24:40;;;;;;;6.70;3.92;;;;;;;19.21;45.34;102350.88;4983459;28;20053;-68
2022/11/30 11:27:06;;;;;;;6.85;4.20;;;;;;;19.22;45.50;102357.88;4990041;28;20061;-69
2022/11/30 11:29:34;;;;;;;6.20;4.00;;;;;;;19.16;45.62;102356.44;4998777;28;20041;-68